Time;durP1;ratioP1;P1;durP2;ratioP2;P2;SDS_P1;SDS_P2;PMS_P1;PMS_P2;Temp;Humidity;BMP_temperature;BMP_pressure;BME280_temperature;BME280_humidity;BME280_pressure;Samples;Min_cycle;Max_cycle;Signal;HPM_P1;HPM_P2
2022/12/08 00:10:02;;;;;;;;;;;15.70;63.80;;;;;;10335352;28;93619;-71
2022/12/08 00:15:24;;;;;;;;;;;15.70;63.80;;;;;;10335934;28;95749;-72
2022/12/08 00:20:26;;;;;;;;;;;15.70;63.70;;;;;;10317933;28;93638;-71
2022/12/08 00:25:27;;;;;;;;;;;15.60;63.50;;;;;;10334342;28;94226;-72
2022/12/08 00:30:29;;;;;;;;;;;15.60;63.50;;;;;;10334643;28;92751;-71
2022/12/08 00:35:31;;;;;;;;;;;15.60;63.40;;;;;;10334934;28;93576;-71
2022/12/08 00:40:33;;;;;;;;;;;15.50;63.30;;;;;;10334090;28;93257;-71
2022/12/08 00:45:34;;;;;;;;;;;15.50;63.50;;;;;;10330072;28;95487;-71
2022/12/08 00:50:36;;;;;;;;;;;15.50;63.80;;;;;;10333847;28;93648;-72
2022/12/08 00:55:38;;;;;;;;;;;15.60;63.80;;;;;;10333389;28;93514;-71
2022/12/08 01:00:40;;;;;;;;;;;15.60;63.60;;;;;;10332953;28;93249;-71
2022/12/08 01:05:43;;;;;;;;;;;15.70;63.40;;;;;;10332562;28;93506;-71
2022/12/08 01:10:45;;;;;;;;;;;15.70;63.30;;;;;;10333093;28;94341;-71
2022/12/08 01:15:47;;;;;;;;;;;15.70;63.20;;;;;;10331902;28;93453;-71
2022/12/08 01:20:49;;;;;;;;;;;15.70;63.20;;;;;;10332714;28;92642;-71
2022/12/08 01:25:51;;;;;;;;;;;15.70;63.10;;;;;;10333312;28;94276;-71
2022/12/08 01:30:52;;;;;;;;;;;15.70;63.20;;;;;;10332828;28;93430;-71
2022/12/08 01:35:55;;;;;;;;;;;15.60;63.20;;;;;;10329833;28;95579;-71
2022/12/08 01:40:57;;;;;;;;;;;15.60;63.20;;;;;;10332258;28;93393;-71
2022/12/08 01:45:58;;;;;;;;;;;15.60;63.30;;;;;;10330089;28;92877;-71
2022/12/08 01:51:00;;;;;;;;;;;15.50;63.40;;;;;;10332116;28;94779;-71
2022/12/08 01:56:05;;;;;;;;;;;15.50;63.40;;;;;;10332181;28;94406;-70
2022/12/08 02:06:29;;;;;;;;;;;15.50;63.20;;;;;;9102785;23;93928;-71
2022/12/08 02:11:31;;;;;;;;;;;15.50;63.10;;;;;;10137074;28;93730;-71
2022/12/08 02:16:35;;;;;;;;;;;15.50;63.20;;;;;;10168171;28;94443;-71
2022/12/08 02:21:43;;;;;;;;;;;15.40;63.10;;;;;;10168662;28;93542;-70
2022/12/08 02:27:03;;;;;;;;;;;15.40;63.40;;;;;;10167335;28;96483;-70
2022/12/08 02:32:11;;;;;;;;;;;15.40;63.40;;;;;;10169560;28;94496;-71
2022/12/08 02:37:26;;;;;;;;;;;15.50;63.40;;;;;;10169281;28;94548;-70
2022/12/08 02:42:38;;;;;;;;;;;15.60;63.30;;;;;;10189581;28;94405;-71
2022/12/08 02:47:41;;;;;;;;;;;15.70;62.90;;;;;;10209112;28;93607;-70
2022/12/08 02:52:46;;;;;;;;;;;15.80;63.80;;;;;;10209536;28;93773;-70
2022/12/08 02:57:55;;;;;;;;;;;15.80;62.70;;;;;;10208445;28;94214;-71
2022/12/08 03:03:17;;;;;;;;;;;15.80;62.70;;;;;;10204167;28;93611;-70
2022/12/08 03:08:33;;;;;;;;;;;15.70;62.70;;;;;;10206984;28;93614;-70
2022/12/08 03:13:40;;;;;;;;;;;15.70;62.70;;;;;;10206683;28;92971;-71
2022/12/08 03:18:46;;;;;;;;;;;15.70;62.80;;;;;;10187638;28;96174;-70
2022/12/08 03:23:49;;;;;;;;;;;15.60;62.80;;;;;;10189917;28;94479;-71
2022/12/08 03:28:51;;;;;;;;;;;15.60;62.90;;;;;;10192083;28;93452;-71
2022/12/08 03:33:55;;;;;;;;;;;15.50;62.80;;;;;;10213773;28;94451;-71
2022/12/08 03:38:56;;;;;;;;;;;15.50;62.90;;;;;;10214689;28;93112;-70
2022/12/08 03:43:58;;;;;;;;;;;15.50;62.90;;;;;;10213080;28;94293;-71
2022/12/08 03:49:00;;;;;;;;;;;15.50;63.00;;;;;;10214323;28;94819;-70
2022/12/08 03:54:02;;;;;;;;;;;15.40;63.00;;;;;;10215099;28;92800;-71
2022/12/08 03:59:04;;;;;;;;;;;15.40;63.00;;;;;;10213998;28;93989;-70
2022/12/08 04:04:06;;;;;;;;;;;15.40;63.00;;;;;;10213921;28;94836;-70
2022/12/08 04:09:08;;;;;;;;;;;15.40;63.00;;;;;;10211556;28;95905;-71
2022/12/08 04:14:10;;;;;;;;;;;15.30;63.10;;;;;;10196261;28;93030;-71
2022/12/08 04:19:11;;;;;;;;;;;15.40;63.10;;;;;;10213406;28;93462;-70
2022/12/08 04:24:13;;;;;;;;;;;15.40;63.00;;;;;;10213199;28;93452;-71
2022/12/08 04:29:15;;;;;;;;;;;15.50;62.80;;;;;;10214050;28;92924;-71
2022/12/08 04:34:17;;;;;;;;;;;15.50;62.70;;;;;;10213319;28;93735;-71
2022/12/08 04:39:19;;;;;;;;;;;15.50;62.60;;;;;;10212949;28;93464;-71
2022/12/08 04:44:21;;;;;;;;;;;15.50;62.60;;;;;;10213922;28;96344;-71
2022/12/08 04:49:22;;;;;;;;;;;15.50;62.60;;;;;;10212731;28;93403;-70
2022/12/08 04:54:58;;;;;;;;;;;15.50;62.60;;;;;;10212976;28;94441;-71
2022/12/08 05:00:00;;;;;;;;;;;15.40;62.70;;;;;;10193683;28;95749;-70
2022/12/08 05:05:03;;;;;;;;;;;15.40;62.60;;;;;;10213671;28;94402;-70
2022/12/08 05:10:05;;;;;;;;;;;15.40;62.70;;;;;;10212121;28;93875;-71
2022/12/08 05:15:07;;;;;;;;;;;15.40;62.80;;;;;;10212795;28;94624;-71
2022/12/08 05:20:09;;;;;;;;;;;15.40;62.80;;;;;;10212458;28;96144;-71
2022/12/08 05:25:11;;;;;;;;;;;15.30;62.80;;;;;;10212315;28;94661;-71
2022/12/08 05:30:13;;;;;;;;;;;15.30;62.80;;;;;;10194518;28;94459;-71
2022/12/08 05:35:15;;;;;;;;;;;15.30;62.70;;;;;;10194388;28;93329;-71
2022/12/08 05:40:17;;;;;;;;;;;15.30;62.90;;;;;;10211568;28;93572;-71
2022/12/08 05:45:18;;;;;;;;;;;15.30;62.90;;;;;;10209388;28;93614;-71
2022/12/08 05:50:20;;;;;;;;;;;15.40;62.90;;;;;;10208200;28;94924;-70
2022/12/08 05:55:22;;;;;;;;;;;15.60;62.70;;;;;;10210944;28;94420;-71
2022/12/08 06:00:24;;;;;;;;;;;15.80;62.40;;;;;;10193584;28;93472;-71
2022/12/08 06:05:25;;;;;;;;;;;16.00;62.20;;;;;;10209598;28;93071;-72
2022/12/08 06:10:27;;;;;;;;;;;16.20;61.90;;;;;;10210177;28;93472;-71
2022/12/08 06:15:29;;;;;;;;;;;16.30;61.60;;;;;;10210166;28;93433;-71
2022/12/08 06:20:31;;;;;;;;;;;16.40;61.40;;;;;;10192707;28;93669;-71
2022/12/08 06:25:33;;;;;;;;;;;16.40;61.40;;;;;;10211106;28;92779;-71
2022/12/08 06:30:36;;;;;;;;;;;16.30;61.40;;;;;;10210302;28;94484;-71
2022/12/08 06:35:37;;;;;;;;;;;16.30;61.70;;;;;;10208978;28;94413;-69
2022/12/08 06:40:39;;;;;;;;;;;16.20;61.90;;;;;;10206304;28;95477;-69
2022/12/08 06:45:41;;;;;;;;;;;16.20;62.20;;;;;;10207900;28;93526;-69
2022/12/08 06:50:43;;;;;;;;;;;16.20;62.20;;;;;;10206135;28;94000;-70
2022/12/08 06:55:46;;;;;;;;;;;16.20;62.10;;;;;;10208329;28;94467;-72
2022/12/08 07:01:04;;;;;;;;;;;16.20;62.40;;;;;;10192785;28;93472;-69
2022/12/08 07:06:06;;;;;;;;;;;16.20;63.50;;;;;;10211158;28;93997;-70
2022/12/08 07:11:08;;;;;;;;;;;16.10;64.00;;;;;;10214166;28;93509;-67
2022/12/08 07:16:11;;;;;;;;;;;16.10;64.50;;;;;;10215438;28;93112;-70
2022/12/08 07:21:13;;;;;;;;;;;16.10;64.40;;;;;;10214390;28;93166;-71
2022/12/08 07:26:16;;;;;;;;;;;16.00;64.20;;;;;;10215276;28;95814;-71
2022/12/08 07:31:20;;;;;;;;;;;16.00;64.10;;;;;;10210721;28;95778;-71
2022/12/08 07:36:22;;;;;;;;;;;15.90;64.20;;;;;;10214622;28;94526;-71
2022/12/08 07:41:25;;;;;;;;;;;15.90;64.20;;;;;;10213426;28;93283;-72
2022/12/08 07:46:26;;;;;;;;;;;15.80;64.20;;;;;;10196206;28;93443;-72
2022/12/08 07:51:28;;;;;;;;;;;15.80;64.00;;;;;;10213606;28;93447;-72
2022/12/08 07:56:30;;;;;;;;;;;15.80;64.00;;;;;;10213266;28;94415;-72
2022/12/08 08:01:32;;;;;;;;;;;15.80;64.00;;;;;;10214510;28;94526;-71
2022/12/08 08:06:36;;;;;;;;;;;15.70;63.90;;;;;;10213841;28;93677;-71
2022/12/08 08:11:38;;;;;;;;;;;15.70;64.00;;;;;;10213615;28;93411;-72
2022/12/08 08:16:45;;;;;;;;;;;15.70;64.10;;;;;;10213111;28;93555;-72
2022/12/08 08:21:47;;;;;;;;;;;15.60;64.10;;;;;;10210624;28;96091;-72
2022/12/08 08:26:49;;;;;;;;;;;15.60;64.00;;;;;;10213262;28;94718;-72
2022/12/08 08:31:51;;;;;;;;;;;15.60;63.90;;;;;;10212199;28;93677;-72
2022/12/08 08:36:53;;;;;;;;;;;15.60;63.90;;;;;;10213138;28;93581;-72
2022/12/08 08:41:54;;;;;;;;;;;15.60;63.80;;;;;;10212913;28;94582;-72
2022/12/08 08:46:56;;;;;;;;;;;15.60;63.80;;;;;;10212247;28;92647;-72
2022/12/08 08:51:58;;;;;;;;;;;15.60;63.80;;;;;;10211978;28;93261;-72
2022/12/08 08:57:00;;;;;;;;;;;15.60;63.80;;;;;;10213208;28;93111;-72
2022/12/08 09:02:01;;;;;;;;;;;15.50;63.80;;;;;;10211327;28;93342;-72
2022/12/08 09:07:03;;;;;;;;;;;15.60;63.80;;;;;;10212090;28;94731;-72
2022/12/08 09:12:05;;;;;;;;;;;15.60;63.70;;;;;;10209088;28;95904;-72
2022/12/08 09:17:07;;;;;;;;;;;15.60;63.70;;;;;;10211636;28;93560;-72
2022/12/08 09:22:08;;;;;;;;;;;15.60;63.70;;;;;;10211588;28;93437;-72
2022/12/08 09:27:10;;;;;;;;;;;15.60;63.70;;;;;;10209975;28;93444;-71
2022/12/08 09:32:12;;;;;;;;;;;15.50;63.70;;;;;;10211357;28;93503;-72
2022/12/08 09:37:14;;;;;;;;;;;15.60;63.80;;;;;;10192983;28;93624;-72
2022/12/08 09:42:19;;;;;;;;;;;15.50;63.70;;;;;;10193050;28;93337;-72
2022/12/08 09:47:26;;;;;;;;;;;15.60;63.70;;;;;;10210949;28;92784;-71
2022/12/08 09:52:39;;;;;;;;;;;15.50;63.60;;;;;;10210179;28;93453;-71
2022/12/08 09:57:41;;;;;;;;;;;15.50;63.60;;;;;;10210238;28;93931;-72
2022/12/08 10:02:46;;;;;;;;;;;15.50;63.70;;;;;;10207637;28;95936;-72
2022/12/08 10:07:57;;;;;;;;;;;15.60;63.80;;;;;;10192108;28;94514;-72
2022/12/08 10:13:20;;;;;;;;;;;15.60;63.80;;;;;;10210619;28;92648;-72
2022/12/08 10:18:24;;;;;;;;;;;15.60;63.70;;;;;;10192955;28;93481;-72
2022/12/08 10:23:35;;;;;;;;;;;15.60;63.60;;;;;;10209713;28;93448;-72
2022/12/08 10:28:37;;;;;;;;;;;15.60;63.60;;;;;;10210170;28;94395;-72
2022/12/08 10:33:46;;;;;;;;;;;15.50;63.60;;;;;;10208675;28;93750;-72
2022/12/08 10:38:48;;;;;;;;;;;15.60;63.70;;;;;;10211097;28;92794;-72
2022/12/08 10:43:53;;;;;;;;;;;15.60;63.70;;;;;;10199076;28;94517;-71
2022/12/08 10:49:09;;;;;;;;;;;15.60;63.60;;;;;;10198451;28;93648;-72
2022/12/08 10:54:25;;;;;;;;;;;15.60;63.60;;;;;;10196217;28;96821;-72
2022/12/08 10:59:28;;;;;;;;;;;15.60;63.60;;;;;;10216434;28;94448;-73
2022/12/08 11:04:34;;;;;;;;;;;15.60;63.60;;;;;;10197955;28;93449;-72
2022/12/08 11:09:40;;;;;;;;;;;15.50;63.60;;;;;;10198003;28;93399;-72
2022/12/08 11:14:41;;;;;;;;;;;15.60;63.70;;;;;;10215014;28;92813;-72
2022/12/08 11:19:44;;;;;;;;;;;15.60;63.70;;;;;;10215447;28;94479;-72
2022/12/08 11:24:55;;;;;;;;;;;15.60;63.60;;;;;;10214133;28;93761;-72
2022/12/08 11:29:56;;;;;;;;;;;15.60;63.60;;;;;;10198187;28;92509;-71
2022/12/08 11:35:00;;;;;;;;;;;15.60;63.70;;;;;;10198545;28;93561;-72
2022/12/08 11:40:04;;;;;;;;;;;15.50;63.80;;;;;;10214046;28;93639;-72
2022/12/08 11:45:11;;;;;;;;;;;15.50;63.80;;;;;;10194786;28;95889;-72
2022/12/08 11:50:19;;;;;;;;;;;15.60;63.80;;;;;;10214263;28;92925;-71
2022/12/08 11:55:35;;;;;;;;;;;15.60;63.70;;;;;;10213565;28;94423;-73
2022/12/08 12:00:40;;;;;;;;;;;15.60;63.70;;;;;;10196854;28;94579;-72
2022/12/08 12:05:41;;;;;;;;;;;15.50;63.70;;;;;;10212687;28;93273;-72
2022/12/08 12:12:11;;;;;;;;;;;15.50;63.80;;;;;;10212989;28;94038;-71
2022/12/08 12:16:50;;;;;;;;;;;15.50;63.80;;;;;;10213414;28;93516;-72
2022/12/08 12:21:54;;;;;;;;;;;15.60;63.80;;;;;;10195770;28;92084;-72
2022/12/08 12:26:59;;;;;;;;;;;15.60;63.80;;;;;;10195742;28;94633;-72
2022/12/08 12:32:08;;;;;;;;;;;15.60;63.80;;;;;;10195297;28;93305;-72
2022/12/08 12:37:11;;;;;;;;;;;15.50;63.70;;;;;;10210731;28;96934;-72
2022/12/08 12:42:32;;;;;;;;;;;15.50;63.80;;;;;;10195081;28;93330;-72
2022/12/08 12:48:03;;;;;;;;;;;15.60;63.90;;;;;;10212121;28;93655;-72
2022/12/08 12:53:24;;;;;;;;;;;15.60;63.80;;;;;;10194156;28;92603;-72
2022/12/08 12:58:26;;;;;;;;;;;15.60;63.70;;;;;;10211706;28;93667;-72
2022/12/08 13:03:28;;;;;;;;;;;15.60;63.60;;;;;;10210195;28;94486;-71
2022/12/08 13:08:30;;;;;;;;;;;15.60;63.70;;;;;;10194042;28;93285;-72
2022/12/08 13:13:32;;;;;;;;;;;15.60;63.70;;;;;;10178851;28;93384;-72
2022/12/08 13:18:35;;;;;;;;;;;15.60;63.80;;;;;;10211189;28;93048;-72
2022/12/08 13:23:37;;;;;;;;;;;15.60;63.70;;;;;;10194053;28;93252;-72
2022/12/08 13:28:57;;;;;;;;;;;15.60;63.70;;;;;;10208649;28;96832;-71
2022/12/08 13:33:59;;;;;;;;;;;15.60;63.70;;;;;;10211299;28;93535;-72
2022/12/08 13:39:01;;;;;;;;;;;15.60;63.60;;;;;;10176964;28;93414;-73
2022/12/08 13:44:22;;;;;;;;;;;15.50;63.60;;;;;;10210347;28;92957;-72
2022/12/08 13:49:49;;;;;;;;;;;15.50;63.70;;;;;;10210352;28;93331;-72
2022/12/08 13:55:17;;;;;;;;;;;15.60;63.70;;;;;;10210515;28;93524;-70
2022/12/08 14:00:38;;;;;;;;;;;15.60;63.60;;;;;;10210258;28;93876;-70
2022/12/08 14:05:42;;;;;;;;;;;15.60;63.60;;;;;;10208792;28;113374;-71
2022/12/08 14:11:05;;;;;;;;;;;15.60;63.60;;;;;;10209252;28;92614;-71
2022/12/08 14:16:16;;;;;;;;;;;15.50;63.60;;;;;;10209145;28;94410;-71
2022/12/08 14:21:18;;;;;;;;;;;15.50;63.60;;;;;;10173074;28;96268;-71
2022/12/08 14:26:22;;;;;;;;;;;15.50;63.50;;;;;;10208216;28;94578;-70
2022/12/08 14:31:24;;;;;;;;;;;15.60;63.50;;;;;;10209005;28;94368;-71
2022/12/08 14:36:27;;;;;;;;;;;15.60;63.50;;;;;;10190754;28;93686;-71
2022/12/08 14:41:31;;;;;;;;;;;15.50;63.40;;;;;;10207887;28;93573;-70
2022/12/08 14:46:32;;;;;;;;;;;15.50;63.40;;;;;;10207503;28;92597;-70
2022/12/08 14:51:35;;;;;;;;;;;15.50;63.40;;;;;;10208048;28;93369;-71
2022/12/08 14:56:39;;;;;;;;;;;15.50;63.40;;;;;;10209034;28;93803;-71
2022/12/08 15:01:41;;;;;;;;;;;15.50;63.30;;;;;;10208594;28;92645;-70
2022/12/08 15:06:53;;;;;;;;;;;15.50;63.20;;;;;;10206947;28;94406;-71
2022/12/08 15:12:18;;;;;;;;;;;15.50;63.20;;;;;;10204439;28;95797;-71
2022/12/08 15:17:33;;;;;;;;;;;15.50;63.30;;;;;;10201255;28;92891;-71
2022/12/08 15:22:34;;;;;;;;;;;15.50;63.20;;;;;;10207296;28;94202;-70
2022/12/08 15:27:36;;;;;;;;;;;15.50;63.20;;;;;;10211770;28;93454;-71
2022/12/08 15:32:51;;;;;;;;;;;15.60;63.20;;;;;;10213576;28;93472;-72
2022/12/08 15:37:53;;;;;;;;;;;15.50;63.00;;;;;;10212815;28;93310;-72
2022/12/08 15:42:55;;;;;;;;;;;15.50;63.00;;;;;;10213609;28;93286;-71
2022/12/08 15:47:56;;;;;;;;;;;15.50;63.00;;;;;;10213942;28;92797;-71
2022/12/08 15:52:58;;;;;;;;;;;15.50;63.00;;;;;;10213587;28;92514;-71
2022/12/08 15:58:00;;;;;;;;;;;15.50;62.80;;;;;;10212949;28;93268;-71
2022/12/08 16:03:23;;;;;;;;;;;15.50;62.80;;;;;;10210214;28;96513;-70
2022/12/08 16:08:44;;;;;;;;;;;15.50;62.70;;;;;;10213485;28;93253;-70
2022/12/08 16:14:06;;;;;;;;;;;15.50;62.80;;;;;;10212580;28;93098;-71
2022/12/08 16:19:28;;;;;;;;;;;15.60;62.80;;;;;;10211888;28;93098;-72
2022/12/08 16:24:29;;;;;;;;;;;15.80;62.60;;;;;;10212267;28;95418;-72
2022/12/08 16:29:31;;;;;;;;;;;16.00;62.20;;;;;;10212485;28;94466;-72
2022/12/08 16:34:33;;;;;;;;;;;16.10;61.90;;;;;;10212132;28;94074;-72
2022/12/08 16:39:35;;;;;;;;;;;16.30;61.60;;;;;;10212003;28;92312;-71
2022/12/08 16:44:44;;;;;;;;;;;16.40;61.40;;;;;;10195484;28;93593;-72
2022/12/08 16:49:46;;;;;;;;;;;16.60;61.20;;;;;;10212297;28;94091;-70
2022/12/08 16:54:48;;;;;;;;;;;16.60;61.00;;;;;;10192216;28;96727;-68
2022/12/08 16:59:50;;;;;;;;;;;16.70;61.10;;;;;;10210986;28;93415;-67
2022/12/08 17:04:51;;;;;;;;;;;16.70;61.20;;;;;;10210680;28;93446;-66
2022/12/08 17:09:53;;;;;;;;;;;16.80;60.80;;;;;;10210521;28;93976;-68
2022/12/08 17:14:55;;;;;;;;;;;16.80;62.00;;;;;;10210903;28;93634;-73
2022/12/08 17:19:57;;;;;;;;;;;17.10;66.10;;;;;;10192712;28;94434;-66
2022/12/08 17:24:59;;;;;;;;;;;17.30;65.70;;;;;;10209393;28;94471;-68
2022/12/08 17:30:01;;;;;;;;;;;17.40;64.40;;;;;;10208900;28;93754;-69
2022/12/08 17:35:03;;;;;;;;;;;17.50;63.90;;;;;;10210076;28;93413;-70
2022/12/08 17:40:05;;;;;;;;;;;17.50;63.20;;;;;;10192650;28;94384;-70
2022/12/08 17:45:08;;;;;;;;;;;17.50;63.00;;;;;;10206929;28;96830;-70
2022/12/08 17:50:09;;;;;;;;;;;17.40;63.00;;;;;;10209042;28;93484;-69
2022/12/08 17:55:11;;;;;;;;;;;17.30;62.90;;;;;;10208700;28;93457;-69
2022/12/08 18:00:13;;;;;;;;;;;17.40;62.90;;;;;;10208961;28;94423;-69
2022/12/08 18:05:15;;;;;;;;;;;17.50;63.00;;;;;;10208476;28;94742;-67
2022/12/08 18:10:17;;;;;;;;;;;17.60;62.80;;;;;;10207799;28;93869;-67
2022/12/08 18:15:19;;;;;;;;;;;17.60;62.80;;;;;;10207917;28;93425;-67
2022/12/08 18:20:21;;;;;;;;;;;17.60;62.60;;;;;;10209654;28;93714;-66
2022/12/08 18:25:23;;;;;;;;;;;17.50;62.50;;;;;;10207733;28;93476;-66
2022/12/08 18:30:25;;;;;;;;;;;17.40;62.50;;;;;;10208028;28;94432;-66
2022/12/08 18:35:27;;;;;;;;;;;17.40;62.60;;;;;;10205552;28;95917;-65
2022/12/08 18:40:29;;;;;;;;;;;17.30;62.60;;;;;;10208135;28;94474;-66
2022/12/08 18:45:31;;;;;;;;;;;17.20;62.60;;;;;;10207856;28;94564;-66
2022/12/08 18:50:33;;;;;;;;;;;17.30;62.70;;;;;;10208001;28;92958;-66
2022/12/08 18:55:35;;;;;;;;;;;17.30;62.60;;;;;;10190387;28;93458;-67
2022/12/08 19:00:37;;;;;;;;;;;17.30;63.40;;;;;;10192999;28;93614;-66
2022/12/08 19:05:39;;;;;;;;;;;17.40;62.20;;;;;;10213743;28;93490;-66
2022/12/08 19:10:41;;;;;;;;;;;17.40;62.00;;;;;;10215391;28;91869;-66
2022/12/08 19:15:42;;;;;;;;;;;17.30;61.90;;;;;;10214375;28;93819;-65
2022/12/08 19:20:44;;;;;;;;;;;17.40;61.90;;;;;;10214181;28;94316;-66
2022/12/08 19:25:46;;;;;;;;;;;17.40;61.80;;;;;;10212162;28;96870;-67
2022/12/08 19:30:48;;;;;;;;;;;17.40;61.70;;;;;;10213806;28;93323;-66
2022/12/08 19:35:50;;;;;;;;;;;17.50;61.70;;;;;;10214468;28;93098;-66
2022/12/08 19:46:13;;;;;;;;;;;17.60;61.30;;;;;;10213243;28;93498;-66
2022/12/08 19:51:15;;;;;;;;;;;17.60;61.30;;;;;;10196261;28;94439;-65
2022/12/08 19:56:17;;;;;;;;;;;17.50;61.30;;;;;;10195548;28;93286;-66
2022/12/08 20:01:19;;;;;;;;;;;17.50;61.40;;;;;;10213411;28;92721;-66
2022/12/08 20:06:22;;;;;;;;;;;17.50;61.40;;;;;;10212342;28;93372;-67
2022/12/08 20:11:23;;;;;;;;;;;17.50;61.30;;;;;;10212344;28;94374;-66
2022/12/08 20:16:25;;;;;;;;;;;17.60;61.30;;;;;;10192622;28;95873;-66
2022/12/08 20:21:27;;;;;;;;;;;17.60;61.20;;;;;;10211009;28;93765;-66
2022/12/08 20:26:29;;;;;;;;;;;17.70;61.00;;;;;;10212804;28;94379;-66
2022/12/08 20:31:31;;;;;;;;;;;17.60;61.00;;;;;;10211668;28;93207;-66
2022/12/08 20:36:33;;;;;;;;;;;17.60;61.00;;;;;;10212146;28;94431;-66
2022/12/08 20:41:48;;;;;;;;;;;17.60;61.20;;;;;;10211148;28;94790;-66
2022/12/08 20:46:50;;;;;;;;;;;17.60;61.30;;;;;;10209403;28;94466;-67
2022/12/08 20:51:52;;;;;;;;;;;17.50;61.30;;;;;;10194941;28;92690;-67
2022/12/08 20:56:54;;;;;;;;;;;17.40;61.20;;;;;;10210857;28;93775;-67
2022/12/08 21:01:56;;;;;;;;;;;17.30;61.30;;;;;;10210833;28;93541;-67
2022/12/08 21:06:59;;;;;;;;;;;17.20;61.50;;;;;;10206885;28;95500;-67
2022/12/08 21:12:01;;;;;;;;;;;17.10;61.60;;;;;;10210317;28;93562;-67
2022/12/08 21:33:37;;;;;;;;;;;16.90;60.80;;;;;;10490784;27;88765;-65
2022/12/08 21:38:39;;;;;;;;;;;16.70;61.80;;;;;;10488962;27;87660;-66
2022/12/08 21:43:41;;;;;;;;;;;16.60;61.80;;;;;;10489900;27;88165;-66
2022/12/08 21:48:43;;;;;;;;;;;16.50;61.90;;;;;;10488557;27;89051;-66
2022/12/08 21:53:46;;;;;;;;;;;16.40;61.90;;;;;;10487725;27;88260;-66
2022/12/08 21:58:48;;;;;;;;;;;16.40;61.90;;;;;;10488478;27;88789;-66
2022/12/08 22:03:50;;;;;;;;;;;16.30;62.00;;;;;;10486978;27;89134;-66
2022/12/08 22:08:53;;;;;;;;;;;16.30;62.10;;;;;;10488737;27;89266;-66
2022/12/08 22:13:55;;;;;;;;;;;16.20;62.10;;;;;;10487703;27;88515;-66
2022/12/08 22:18:58;;;;;;;;;;;16.10;62.10;;;;;;10486495;27;89402;-67
2022/12/08 22:24:00;;;;;;;;;;;16.10;62.30;;;;;;10489855;27;88464;-66
2022/12/08 22:29:01;;;;;;;;;;;16.10;62.30;;;;;;10491253;27;88275;-66
2022/12/08 22:34:03;;;;;;;;;;;16.00;62.40;;;;;;10469109;27;89289;-66
2022/12/08 22:39:05;;;;;;;;;;;16.00;62.40;;;;;;10465594;27;88258;-65
2022/12/08 22:44:07;;;;;;;;;;;16.00;62.20;;;;;;10466596;27;89273;-66
2022/12/08 22:49:09;;;;;;;;;;;16.00;62.40;;;;;;10465660;27;89241;-66
2022/12/08 22:54:11;;;;;;;;;;;15.90;62.50;;;;;;10466150;27;88335;-66
2022/12/08 22:59:13;;;;;;;;;;;15.90;62.30;;;;;;10465450;27;88097;-66
2022/12/08 23:04:15;;;;;;;;;;;15.80;62.20;;;;;;10466016;27;89415;-66
2022/12/08 23:09:19;;;;;;;;;;;15.80;62.40;;;;;;10465267;27;88868;-67
2022/12/08 23:14:20;;;;;;;;;;;15.80;62.40;;;;;;10465505;27;88811;-66
2022/12/08 23:19:22;;;;;;;;;;;15.70;62.30;;;;;;10463345;27;88237;-66
2022/12/08 23:24:24;;;;;;;;;;;15.70;62.30;;;;;;10464452;27;88917;-67
2022/12/08 23:29:26;;;;;;;;;;;15.70;62.30;;;;;;10463799;27;88943;-66
2022/12/08 23:34:28;;;;;;;;;;;15.70;62.40;;;;;;10464749;27;89247;-66
2022/12/08 23:39:29;;;;;;;;;;;15.70;62.40;;;;;;10463686;27;89421;-67
2022/12/08 23:44:31;;;;;;;;;;;15.70;62.50;;;;;;10462307;27;88155;-66
2022/12/08 23:49:33;;;;;;;;;;;15.60;62.20;;;;;;10463458;27;89387;-66
2022/12/08 23:54:35;;;;;;;;;;;15.60;62.20;;;;;;10463181;27;88546;-66
2022/12/08 23:59:37;;;;;;;;;;;15.60;62.20;;;;;;10464025;27;88499;-66
